Weather at Drop Field [CLOSED]

Public forecast

Using degrees Fahrenheit for public forecast. Weather courtesy of forecast.io.

Closest aviation weather report (METAR) to Drop Field

Closest report is Fort Worth Alliance Airport, 8.4 nm (15.5 km) S. Retrieved 2021/01/16 21:53 UTC (2 hours ago):

KAFW 162153Z 30009KT 10SM BKN200 14/M11 A3002 RMK AO2 SLP171 T01441111

Closest aviation forecast (TAF) to Drop Field

Closest forecast is Fort Worth Alliance Airport, 8.4 nm (15.5 km) S. Retrieved 2021/01/16 18:42 UTC (5 hours ago):

TAF KAFW 161739Z 1618/1718 29008KT P6SM FEW250 FM162300 32004KT P6SM BKN150 FM171000 29005KT P6SM FEW250